sensor_id;sensor_type;location;lat;lon;timestamp;P1;durP1;ratioP1;P2;durP2;ratioP2
68951;SDS011;56000;51.146;17.112;2022-07-03T00:01:37;6.00;;;2.20;;
68951;SDS011;56000;51.146;17.112;2022-07-03T00:04:10;8.40;;;2.60;;
68951;SDS011;56000;51.146;17.112;2022-07-03T00:06:43;6.20;;;2.50;;
68951;SDS011;56000;51.146;17.112;2022-07-03T00:09:16;4.10;;;2.80;;
68951;SDS011;56000;51.146;17.112;2022-07-03T00:11:50;3.70;;;2.40;;
68951;SDS011;56000;51.146;17.112;2022-07-03T00:14:23;4.70;;;2.60;;
68951;SDS011;56000;51.146;17.112;2022-07-03T00:16:56;3.70;;;2.60;;
68951;SDS011;56000;51.146;17.112;2022-07-03T00:19:29;4.20;;;2.10;;
68951;SDS011;56000;51.146;17.112;2022-07-03T00:22:04;5.60;;;2.70;;
68951;SDS011;56000;51.146;17.112;2022-07-03T00:24:42;4.40;;;2.70;;
68951;SDS011;56000;51.146;17.112;2022-07-03T00:27:20;5.90;;;2.80;;
68951;SDS011;56000;51.146;17.112;2022-07-03T00:29:58;6.10;;;2.80;;
68951;SDS011;56000;51.146;17.112;2022-07-03T00:32:32;4.90;;;3.00;;
68951;SDS011;56000;51.146;17.112;2022-07-03T00:35:09;5.30;;;3.00;;
68951;SDS011;56000;51.146;17.112;2022-07-03T00:37:46;5.20;;;2.90;;
68951;SDS011;56000;51.146;17.112;2022-07-03T00:40:20;4.00;;;3.10;;
68951;SDS011;56000;51.146;17.112;2022-07-03T00:42:53;5.30;;;3.50;;
68951;SDS011;56000;51.146;17.112;2022-07-03T00:45:26;9.20;;;3.80;;
68951;SDS011;56000;51.146;17.112;2022-07-03T00:48:05;7.30;;;3.90;;
68951;SDS011;56000;51.146;17.112;2022-07-03T00:50:39;7.00;;;4.00;;
68951;SDS011;56000;51.146;17.112;2022-07-03T00:53:21;7.20;;;4.10;;
68951;SDS011;56000;51.146;17.112;2022-07-03T00:55:59;7.40;;;4.30;;
68951;SDS011;56000;51.146;17.112;2022-07-03T00:58:35;6.80;;;4.30;;
68951;SDS011;56000;51.146;17.112;2022-07-03T01:01:08;8.10;;;4.00;;
68951;SDS011;56000;51.146;17.112;2022-07-03T01:03:46;9.50;;;3.90;;
68951;SDS011;56000;51.146;17.112;2022-07-03T01:06:25;10.50;;;4.00;;
68951;SDS011;56000;51.146;17.112;2022-07-03T01:09:04;5.30;;;4.10;;
68951;SDS011;56000;51.146;17.112;2022-07-03T01:11:45;8.30;;;5.00;;
68951;SDS011;56000;51.146;17.112;2022-07-03T01:14:31;6.20;;;4.20;;
68951;SDS011;56000;51.146;17.112;2022-07-03T01:17:15;6.50;;;4.70;;
68951;SDS011;56000;51.146;17.112;2022-07-03T01:19:58;9.10;;;5.00;;
68951;SDS011;56000;51.146;17.112;2022-07-03T01:22:36;11.70;;;5.50;;
68951;SDS011;56000;51.146;17.112;2022-07-03T01:25:25;8.50;;;5.50;;
68951;SDS011;56000;51.146;17.112;2022-07-03T01:28:10;11.20;;;5.00;;
68951;SDS011;56000;51.146;17.112;2022-07-03T01:30:46;8.40;;;4.80;;
68951;SDS011;56000;51.146;17.112;2022-07-03T01:33:21;11.00;;;5.60;;
68951;SDS011;56000;51.146;17.112;2022-07-03T01:36:06;8.00;;;4.90;;
68951;SDS011;56000;51.146;17.112;2022-07-03T01:38:40;7.80;;;4.80;;
68951;SDS011;56000;51.146;17.112;2022-07-03T01:41:15;6.20;;;4.20;;
68951;SDS011;56000;51.146;17.112;2022-07-03T01:43:52;7.90;;;4.50;;
68951;SDS011;56000;51.146;17.112;2022-07-03T01:46:32;8.60;;;4.70;;
68951;SDS011;56000;51.146;17.112;2022-07-03T01:49:05;5.40;;;4.40;;
68951;SDS011;56000;51.146;17.112;2022-07-03T01:51:39;7.60;;;4.70;;
68951;SDS011;56000;51.146;17.112;2022-07-03T01:54:14;8.60;;;4.50;;
68951;SDS011;56000;51.146;17.112;2022-07-03T01:56:47;6.60;;;4.90;;
68951;SDS011;56000;51.146;17.112;2022-07-03T01:59:20;7.10;;;4.70;;
68951;SDS011;56000;51.146;17.112;2022-07-03T02:01:57;6.20;;;4.30;;
68951;SDS011;56000;51.146;17.112;2022-07-03T02:04:34;6.00;;;4.60;;
68951;SDS011;56000;51.146;17.112;2022-07-03T02:07:18;6.60;;;4.70;;
68951;SDS011;56000;51.146;17.112;2022-07-03T02:10:02;8.30;;;4.10;;
68951;SDS011;56000;51.146;17.112;2022-07-03T02:12:39;6.40;;;3.50;;
68951;SDS011;56000;51.146;17.112;2022-07-03T02:17:54;5.40;;;4.30;;
68951;SDS011;56000;51.146;17.112;2022-07-03T02:20:28;6.40;;;4.50;;
68951;SDS011;56000;51.146;17.112;2022-07-03T02:23:04;6.70;;;4.20;;
68951;SDS011;56000;51.146;17.112;2022-07-03T02:25:40;6.30;;;4.00;;
68951;SDS011;56000;51.146;17.112;2022-07-03T02:28:22;5.10;;;4.20;;
68951;SDS011;56000;51.146;17.112;2022-07-03T02:31:02;8.70;;;4.90;;
68951;SDS011;56000;51.146;17.112;2022-07-03T02:33:39;5.70;;;3.90;;
68951;SDS011;56000;51.146;17.112;2022-07-03T02:36:14;8.60;;;4.90;;
68951;SDS011;56000;51.146;17.112;2022-07-03T02:38:54;5.40;;;4.40;;
68951;SDS011;56000;51.146;17.112;2022-07-03T02:41:37;8.50;;;4.10;;
68951;SDS011;56000;51.146;17.112;2022-07-03T02:44:23;7.00;;;4.60;;
68951;SDS011;56000;51.146;17.112;2022-07-03T02:47:06;7.10;;;4.80;;
68951;SDS011;56000;51.146;17.112;2022-07-03T02:49:53;8.10;;;4.60;;
68951;SDS011;56000;51.146;17.112;2022-07-03T02:52:52;11.90;;;5.60;;
68951;SDS011;56000;51.146;17.112;2022-07-03T02:55:38;12.90;;;4.90;;
68951;SDS011;56000;51.146;17.112;2022-07-03T03:01:41;9.30;;;5.40;;
68951;SDS011;56000;51.146;17.112;2022-07-03T03:04:25;12.90;;;5.60;;
68951;SDS011;56000;51.146;17.112;2022-07-03T03:07:04;9.60;;;5.00;;
68951;SDS011;56000;51.146;17.112;2022-07-03T03:09:45;7.30;;;4.60;;
68951;SDS011;56000;51.146;17.112;2022-07-03T03:12:21;8.90;;;5.40;;
68951;SDS011;56000;51.146;17.112;2022-07-03T03:15:04;7.10;;;4.80;;
68951;SDS011;56000;51.146;17.112;2022-07-03T03:17:43;8.80;;;5.40;;
68951;SDS011;56000;51.146;17.112;2022-07-03T03:20:24;7.90;;;5.00;;
68951;SDS011;56000;51.146;17.112;2022-07-03T03:23:17;8.40;;;5.00;;
68951;SDS011;56000;51.146;17.112;2022-07-03T03:25:55;6.00;;;4.10;;
68951;SDS011;56000;51.146;17.112;2022-07-03T03:28:29;9.30;;;4.70;;
68951;SDS011;56000;51.146;17.112;2022-07-03T03:31:02;6.80;;;4.00;;
68951;SDS011;56000;51.146;17.112;2022-07-03T03:33:42;6.50;;;4.80;;
68951;SDS011;56000;51.146;17.112;2022-07-03T03:36:17;7.10;;;4.20;;
68951;SDS011;56000;51.146;17.112;2022-07-03T03:38:51;7.60;;;4.20;;
68951;SDS011;56000;51.146;17.112;2022-07-03T03:41:24;5.60;;;4.20;;
68951;SDS011;56000;51.146;17.112;2022-07-03T03:43:57;4.10;;;3.70;;
68951;SDS011;56000;51.146;17.112;2022-07-03T03:46:30;8.30;;;4.20;;
68951;SDS011;56000;51.146;17.112;2022-07-03T03:49:03;6.00;;;4.40;;
68951;SDS011;56000;51.146;17.112;2022-07-03T03:51:36;12.70;;;4.30;;
68951;SDS011;56000;51.146;17.112;2022-07-03T03:54:09;7.80;;;4.50;;
68951;SDS011;56000;51.146;17.112;2022-07-03T03:56:42;6.70;;;4.00;;
68951;SDS011;56000;51.146;17.112;2022-07-03T03:59:15;3.90;;;3.20;;
68951;SDS011;56000;51.146;17.112;2022-07-03T04:01:48;4.90;;;3.50;;
68951;SDS011;56000;51.146;17.112;2022-07-03T04:04:21;6.20;;;3.40;;
68951;SDS011;56000;51.146;17.112;2022-07-03T04:06:54;9.20;;;4.30;;
68951;SDS011;56000;51.146;17.112;2022-07-03T04:09:27;10.00;;;4.40;;
68951;SDS011;56000;51.146;17.112;2022-07-03T04:12:00;4.50;;;3.60;;
68951;SDS011;56000;51.146;17.112;2022-07-03T04:14:34;5.80;;;4.20;;
68951;SDS011;56000;51.146;17.112;2022-07-03T04:17:07;7.60;;;4.20;;
68951;SDS011;56000;51.146;17.112;2022-07-03T04:19:40;7.80;;;4.50;;
68951;SDS011;56000;51.146;17.112;2022-07-03T04:22:14;8.70;;;4.40;;
68951;SDS011;56000;51.146;17.112;2022-07-03T04:24:47;8.80;;;4.20;;
68951;SDS011;56000;51.146;17.112;2022-07-03T04:27:19;6.90;;;4.10;;
68951;SDS011;56000;51.146;17.112;2022-07-03T04:30:14;7.30;;;4.50;;
68951;SDS011;56000;51.146;17.112;2022-07-03T04:32:46;7.60;;;3.90;;
68951;SDS011;56000;51.146;17.112;2022-07-03T04:35:19;7.40;;;4.30;;
68951;SDS011;56000;51.146;17.112;2022-07-03T04:37:53;9.40;;;4.80;;
68951;SDS011;56000;51.146;17.112;2022-07-03T04:40:26;7.80;;;5.10;;
68951;SDS011;56000;51.146;17.112;2022-07-03T04:42:59;10.20;;;5.70;;
68951;SDS011;56000;51.146;17.112;2022-07-03T04:45:32;9.50;;;6.20;;
68951;SDS011;56000;51.146;17.112;2022-07-03T04:48:05;6.70;;;4.90;;
68951;SDS011;56000;51.146;17.112;2022-07-03T04:50:38;6.70;;;5.40;;
68951;SDS011;56000;51.146;17.112;2022-07-03T04:53:11;6.50;;;4.00;;
68951;SDS011;56000;51.146;17.112;2022-07-03T04:55:44;12.10;;;4.50;;
68951;SDS011;56000;51.146;17.112;2022-07-03T04:58:18;8.90;;;3.90;;
68951;SDS011;56000;51.146;17.112;2022-07-03T05:00:51;8.00;;;4.40;;
68951;SDS011;56000;51.146;17.112;2022-07-03T05:03:24;8.10;;;4.30;;
68951;SDS011;56000;51.146;17.112;2022-07-03T05:05:58;9.80;;;4.40;;
68951;SDS011;56000;51.146;17.112;2022-07-03T05:08:32;12.80;;;4.30;;
68951;SDS011;56000;51.146;17.112;2022-07-03T05:11:04;7.50;;;4.40;;
68951;SDS011;56000;51.146;17.112;2022-07-03T05:13:38;13.40;;;7.50;;
68951;SDS011;56000;51.146;17.112;2022-07-03T05:16:11;6.10;;;4.70;;
68951;SDS011;56000;51.146;17.112;2022-07-03T05:18:44;6.80;;;4.80;;
68951;SDS011;56000;51.146;17.112;2022-07-03T05:21:18;7.60;;;5.00;;
68951;SDS011;56000;51.146;17.112;2022-07-03T05:23:51;6.70;;;4.80;;
68951;SDS011;56000;51.146;17.112;2022-07-03T05:26:24;7.30;;;4.20;;
68951;SDS011;56000;51.146;17.112;2022-07-03T05:28:57;8.50;;;4.70;;
68951;SDS011;56000;51.146;17.112;2022-07-03T05:31:30;8.10;;;4.30;;
68951;SDS011;56000;51.146;17.112;2022-07-03T05:34:03;6.10;;;4.50;;
68951;SDS011;56000;51.146;17.112;2022-07-03T05:36:36;8.20;;;4.90;;
68951;SDS011;56000;51.146;17.112;2022-07-03T05:39:09;5.50;;;4.30;;
68951;SDS011;56000;51.146;17.112;2022-07-03T05:44:30;6.50;;;4.00;;
68951;SDS011;56000;51.146;17.112;2022-07-03T05:47:04;6.50;;;4.70;;
68951;SDS011;56000;51.146;17.112;2022-07-03T05:49:37;8.30;;;4.60;;
68951;SDS011;56000;51.146;17.112;2022-07-03T05:52:10;5.00;;;4.20;;
68951;SDS011;56000;51.146;17.112;2022-07-03T05:54:43;9.20;;;4.70;;
68951;SDS011;56000;51.146;17.112;2022-07-03T05:57:16;4.50;;;3.80;;
68951;SDS011;56000;51.146;17.112;2022-07-03T05:59:50;5.00;;;4.10;;
68951;SDS011;56000;51.146;17.112;2022-07-03T06:02:23;13.10;;;9.90;;
68951;SDS011;56000;51.146;17.112;2022-07-03T06:04:56;4.60;;;3.80;;
68951;SDS011;56000;51.146;17.112;2022-07-03T06:07:29;7.00;;;4.70;;
68951;SDS011;56000;51.146;17.112;2022-07-03T06:10:02;9.10;;;4.70;;
68951;SDS011;56000;51.146;17.112;2022-07-03T06:12:36;5.80;;;4.10;;
68951;SDS011;56000;51.146;17.112;2022-07-03T06:15:11;4.50;;;4.10;;
68951;SDS011;56000;51.146;17.112;2022-07-03T06:17:43;5.20;;;4.00;;
68951;SDS011;56000;51.146;17.112;2022-07-03T06:20:16;8.40;;;4.60;;
68951;SDS011;56000;51.146;17.112;2022-07-03T06:22:49;5.30;;;4.00;;
68951;SDS011;56000;51.146;17.112;2022-07-03T06:25:22;5.50;;;4.40;;
68951;SDS011;56000;51.146;17.112;2022-07-03T06:27:55;6.90;;;4.10;;
68951;SDS011;56000;51.146;17.112;2022-07-03T06:30:33;8.40;;;4.10;;
68951;SDS011;56000;51.146;17.112;2022-07-03T06:33:06;4.30;;;3.80;;
68951;SDS011;56000;51.146;17.112;2022-07-03T06:35:39;5.10;;;4.20;;
68951;SDS011;56000;51.146;17.112;2022-07-03T06:38:12;5.80;;;4.10;;
68951;SDS011;56000;51.146;17.112;2022-07-03T06:40:45;7.70;;;4.60;;
68951;SDS011;56000;51.146;17.112;2022-07-03T06:43:18;5.20;;;3.80;;
68951;SDS011;56000;51.146;17.112;2022-07-03T06:45:51;4.80;;;4.10;;
68951;SDS011;56000;51.146;17.112;2022-07-03T06:48:24;6.70;;;4.00;;
68951;SDS011;56000;51.146;17.112;2022-07-03T06:50:57;18.70;;;10.50;;
68951;SDS011;56000;51.146;17.112;2022-07-03T06:53:30;5.10;;;3.80;;
68951;SDS011;56000;51.146;17.112;2022-07-03T06:56:04;4.40;;;3.70;;
68951;SDS011;56000;51.146;17.112;2022-07-03T06:58:37;3.60;;;2.60;;
68951;SDS011;56000;51.146;17.112;2022-07-03T07:01:10;3.80;;;2.90;;
68951;SDS011;56000;51.146;17.112;2022-07-03T07:03:43;3.90;;;3.30;;
68951;SDS011;56000;51.146;17.112;2022-07-03T07:06:16;4.00;;;3.40;;
68951;SDS011;56000;51.146;17.112;2022-07-03T07:08:49;7.20;;;3.80;;
68951;SDS011;56000;51.146;17.112;2022-07-03T07:11:22;3.20;;;2.70;;
68951;SDS011;56000;51.146;17.112;2022-07-03T07:13:55;3.80;;;3.30;;
68951;SDS011;56000;51.146;17.112;2022-07-03T07:16:29;4.60;;;3.60;;
68951;SDS011;56000;51.146;17.112;2022-07-03T07:19:02;2.60;;;2.40;;
68951;SDS011;56000;51.146;17.112;2022-07-03T07:21:42;4.00;;;2.90;;
68951;SDS011;56000;51.146;17.112;2022-07-03T07:24:15;3.20;;;2.90;;
68951;SDS011;56000;51.146;17.112;2022-07-03T07:26:48;5.00;;;2.90;;
68951;SDS011;56000;51.146;17.112;2022-07-03T07:29:21;3.90;;;2.60;;
68951;SDS011;56000;51.146;17.112;2022-07-03T07:31:54;3.40;;;3.00;;
68951;SDS011;56000;51.146;17.112;2022-07-03T07:34:27;4.00;;;2.80;;
68951;SDS011;56000;51.146;17.112;2022-07-03T07:37:00;6.00;;;2.90;;
68951;SDS011;56000;51.146;17.112;2022-07-03T07:39:33;3.60;;;2.60;;
68951;SDS011;56000;51.146;17.112;2022-07-03T07:42:07;2.30;;;2.20;;
68951;SDS011;56000;51.146;17.112;2022-07-03T07:44:40;2.10;;;1.90;;
68951;SDS011;56000;51.146;17.112;2022-07-03T07:47:13;2.40;;;2.20;;
68951;SDS011;56000;51.146;17.112;2022-07-03T07:49:46;3.40;;;2.70;;
68951;SDS011;56000;51.146;17.112;2022-07-03T07:52:19;3.10;;;2.80;;
68951;SDS011;56000;51.146;17.112;2022-07-03T07:54:54;5.10;;;3.50;;
68951;SDS011;56000;51.146;17.112;2022-07-03T07:57:29;3.00;;;2.40;;
68951;SDS011;56000;51.146;17.112;2022-07-03T08:00:09;3.20;;;2.80;;
68951;SDS011;56000;51.146;17.112;2022-07-03T08:02:44;3.90;;;2.30;;
68951;SDS011;56000;51.146;17.112;2022-07-03T08:05:35;2.20;;;2.00;;
68951;SDS011;56000;51.146;17.112;2022-07-03T08:08:10;4.90;;;4.00;;
68951;SDS011;56000;51.146;17.112;2022-07-03T08:10:45;2.70;;;2.20;;
68951;SDS011;56000;51.146;17.112;2022-07-03T08:13:20;2.60;;;2.00;;
68951;SDS011;56000;51.146;17.112;2022-07-03T08:15:53;2.20;;;2.00;;
68951;SDS011;56000;51.146;17.112;2022-07-03T08:18:26;3.30;;;1.80;;
68951;SDS011;56000;51.146;17.112;2022-07-03T08:20:59;4.40;;;3.30;;
68951;SDS011;56000;51.146;17.112;2022-07-03T08:23:32;2.90;;;1.90;;
68951;SDS011;56000;51.146;17.112;2022-07-03T08:26:05;5.50;;;2.20;;
68951;SDS011;56000;51.146;17.112;2022-07-03T08:28:38;2.20;;;1.90;;
68951;SDS011;56000;51.146;17.112;2022-07-03T08:31:12;1.60;;;1.50;;
68951;SDS011;56000;51.146;17.112;2022-07-03T08:33:45;3.20;;;2.00;;
68951;SDS011;56000;51.146;17.112;2022-07-03T08:36:18;1.70;;;1.60;;
68951;SDS011;56000;51.146;17.112;2022-07-03T08:38:51;2.70;;;1.70;;
68951;SDS011;56000;51.146;17.112;2022-07-03T08:41:24;1.80;;;1.70;;
68951;SDS011;56000;51.146;17.112;2022-07-03T08:44:00;2.40;;;1.60;;
68951;SDS011;56000;51.146;17.112;2022-07-03T08:46:35;5.50;;;2.00;;
68951;SDS011;56000;51.146;17.112;2022-07-03T08:49:10;1.90;;;1.80;;
68951;SDS011;56000;51.146;17.112;2022-07-03T08:51:43;2.10;;;1.90;;
68951;SDS011;56000;51.146;17.112;2022-07-03T08:54:17;2.50;;;1.60;;
68951;SDS011;56000;51.146;17.112;2022-07-03T08:56:50;2.20;;;1.60;;
68951;SDS011;56000;51.146;17.112;2022-07-03T08:59:23;3.60;;;1.90;;
68951;SDS011;56000;51.146;17.112;2022-07-03T09:02:03;2.90;;;1.90;;
68951;SDS011;56000;51.146;17.112;2022-07-03T09:04:36;1.60;;;1.50;;
68951;SDS011;56000;51.146;17.112;2022-07-03T09:07:11;3.10;;;1.80;;
68951;SDS011;56000;51.146;17.112;2022-07-03T09:09:45;1.30;;;1.30;;
68951;SDS011;56000;51.146;17.112;2022-07-03T09:12:18;1.90;;;1.40;;
68951;SDS011;56000;51.146;17.112;2022-07-03T09:14:52;3.40;;;1.30;;
68951;SDS011;56000;51.146;17.112;2022-07-03T09:17:24;4.50;;;1.60;;
68951;SDS011;56000;51.146;17.112;2022-07-03T09:19:59;2.30;;;1.60;;
68951;SDS011;56000;51.146;17.112;2022-07-03T09:22:36;1.60;;;1.50;;
68951;SDS011;56000;51.146;17.112;2022-07-03T09:25:11;2.70;;;1.70;;
68951;SDS011;56000;51.146;17.112;2022-07-03T09:27:50;10.20;;;8.70;;
68951;SDS011;56000;51.146;17.112;2022-07-03T09:30:23;3.30;;;2.60;;
68951;SDS011;56000;51.146;17.112;2022-07-03T09:32:57;1.60;;;1.50;;
68951;SDS011;56000;51.146;17.112;2022-07-03T09:35:29;2.10;;;1.80;;
68951;SDS011;56000;51.146;17.112;2022-07-03T09:38:03;1.60;;;1.50;;
68951;SDS011;56000;51.146;17.112;2022-07-03T09:40:49;1.90;;;1.60;;
68951;SDS011;56000;51.146;17.112;2022-07-03T09:43:26;1.60;;;1.50;;
68951;SDS011;56000;51.146;17.112;2022-07-03T09:46:02;1.60;;;1.50;;
68951;SDS011;56000;51.146;17.112;2022-07-03T09:48:36;1.50;;;1.40;;
68951;SDS011;56000;51.146;17.112;2022-07-03T09:51:16;1.50;;;1.40;;
68951;SDS011;56000;51.146;17.112;2022-07-03T09:53:56;1.50;;;1.40;;
68951;SDS011;56000;51.146;17.112;2022-07-03T09:56:36;1.50;;;1.40;;
68951;SDS011;56000;51.146;17.112;2022-07-03T09:59:11;1.30;;;1.20;;
68951;SDS011;56000;51.146;17.112;2022-07-03T10:01:46;1.50;;;1.40;;
68951;SDS011;56000;51.146;17.112;2022-07-03T10:04:20;1.30;;;1.20;;
68951;SDS011;56000;51.146;17.112;2022-07-03T10:06:56;4.20;;;1.60;;
68951;SDS011;56000;51.146;17.112;2022-07-03T10:09:31;1.50;;;1.40;;
68951;SDS011;56000;51.146;17.112;2022-07-03T10:12:06;1.90;;;1.60;;
68951;SDS011;56000;51.146;17.112;2022-07-03T10:14:40;3.90;;;1.30;;
68951;SDS011;56000;51.146;17.112;2022-07-03T10:17:14;1.70;;;1.50;;
68951;SDS011;56000;51.146;17.112;2022-07-03T10:19:52;1.70;;;1.30;;
68951;SDS011;56000;51.146;17.112;2022-07-03T10:22:26;2.70;;;1.40;;
68951;SDS011;56000;51.146;17.112;2022-07-03T10:25:00;2.20;;;1.70;;
68951;SDS011;56000;51.146;17.112;2022-07-03T10:27:35;1.20;;;1.20;;
68951;SDS011;56000;51.146;17.112;2022-07-03T10:30:11;1.30;;;1.20;;
68951;SDS011;56000;51.146;17.112;2022-07-03T10:32:45;1.90;;;1.20;;
68951;SDS011;56000;51.146;17.112;2022-07-03T10:35:21;1.30;;;1.30;;
68951;SDS011;56000;51.146;17.112;2022-07-03T10:38:06;1.90;;;1.40;;
68951;SDS011;56000;51.146;17.112;2022-07-03T10:40:55;1.90;;;1.30;;
68951;SDS011;56000;51.146;17.112;2022-07-03T10:43:53;1.40;;;1.10;;
68951;SDS011;56000;51.146;17.112;2022-07-03T10:46:44;2.40;;;1.40;;
68951;SDS011;56000;51.146;17.112;2022-07-03T10:49:17;1.70;;;1.60;;
68951;SDS011;56000;51.146;17.112;2022-07-03T10:51:56;1.20;;;1.20;;
68951;SDS011;56000;51.146;17.112;2022-07-03T10:54:31;1.40;;;1.30;;
68951;SDS011;56000;51.146;17.112;2022-07-03T10:57:17;1.90;;;1.40;;
68951;SDS011;56000;51.146;17.112;2022-07-03T11:00:14;1.60;;;1.20;;
68951;SDS011;56000;51.146;17.112;2022-07-03T11:02:50;2.40;;;1.40;;
68951;SDS011;56000;51.146;17.112;2022-07-03T11:05:28;1.50;;;1.30;;
68951;SDS011;56000;51.146;17.112;2022-07-03T11:08:12;2.10;;;1.30;;
68951;SDS011;56000;51.146;17.112;2022-07-03T11:10:45;2.90;;;1.40;;
68951;SDS011;56000;51.146;17.112;2022-07-03T11:13:39;2.40;;;1.20;;
68951;SDS011;56000;51.146;17.112;2022-07-03T11:16:51;2.60;;;1.50;;
68951;SDS011;56000;51.146;17.112;2022-07-03T11:19:51;3.90;;;1.30;;
68951;SDS011;56000;51.146;17.112;2022-07-03T11:22:51;2.50;;;1.50;;
68951;SDS011;56000;51.146;17.112;2022-07-03T11:25:39;1.60;;;1.20;;
68951;SDS011;56000;51.146;17.112;2022-07-03T11:31:21;1.40;;;1.30;;
68951;SDS011;56000;51.146;17.112;2022-07-03T11:34:00;4.30;;;1.50;;
68951;SDS011;56000;51.146;17.112;2022-07-03T11:36:33;1.50;;;1.40;;
68951;SDS011;56000;51.146;17.112;2022-07-03T11:39:09;3.00;;;1.30;;
68951;SDS011;56000;51.146;17.112;2022-07-03T11:41:46;1.70;;;1.20;;
68951;SDS011;56000;51.146;17.112;2022-07-03T11:44:20;1.50;;;1.40;;
68951;SDS011;56000;51.146;17.112;2022-07-03T11:46:53;1.80;;;1.60;;
68951;SDS011;56000;51.146;17.112;2022-07-03T11:49:29;1.60;;;1.40;;
68951;SDS011;56000;51.146;17.112;2022-07-03T11:52:05;1.30;;;1.20;;
68951;SDS011;56000;51.146;17.112;2022-07-03T11:54:52;1.40;;;1.30;;
68951;SDS011;56000;51.146;17.112;2022-07-03T11:57:25;1.30;;;1.20;;
68951;SDS011;56000;51.146;17.112;2022-07-03T12:00:06;4.80;;;1.10;;
68951;SDS011;56000;51.146;17.112;2022-07-03T12:02:51;3.70;;;1.50;;
68951;SDS011;56000;51.146;17.112;2022-07-03T12:05:24;1.40;;;1.30;;
68951;SDS011;56000;51.146;17.112;2022-07-03T12:08:04;1.40;;;1.30;;
68951;SDS011;56000;51.146;17.112;2022-07-03T12:10:41;1.10;;;1.10;;
68951;SDS011;56000;51.146;17.112;2022-07-03T12:13:24;3.10;;;1.60;;
68951;SDS011;56000;51.146;17.112;2022-07-03T12:16:02;4.30;;;1.50;;
68951;SDS011;56000;51.146;17.112;2022-07-03T12:18:46;2.60;;;1.40;;
68951;SDS011;56000;51.146;17.112;2022-07-03T12:21:22;1.20;;;1.10;;
68951;SDS011;56000;51.146;17.112;2022-07-03T12:23:56;1.10;;;1.10;;
68951;SDS011;56000;51.146;17.112;2022-07-03T12:26:30;1.60;;;1.30;;
68951;SDS011;56000;51.146;17.112;2022-07-03T12:29:05;2.00;;;1.60;;
68951;SDS011;56000;51.146;17.112;2022-07-03T12:31:41;1.50;;;1.40;;
68951;SDS011;56000;51.146;17.112;2022-07-03T12:34:16;1.40;;;1.20;;
68951;SDS011;56000;51.146;17.112;2022-07-03T12:36:59;1.40;;;1.30;;
68951;SDS011;56000;51.146;17.112;2022-07-03T12:39:45;1.80;;;1.20;;
68951;SDS011;56000;51.146;17.112;2022-07-03T12:42:20;1.30;;;1.20;;
68951;SDS011;56000;51.146;17.112;2022-07-03T12:45:01;1.30;;;1.20;;
68951;SDS011;56000;51.146;17.112;2022-07-03T12:47:36;1.30;;;1.30;;
68951;SDS011;56000;51.146;17.112;2022-07-03T12:50:10;1.40;;;1.40;;
68951;SDS011;56000;51.146;17.112;2022-07-03T12:52:54;2.30;;;1.50;;
68951;SDS011;56000;51.146;17.112;2022-07-03T12:55:29;3.10;;;1.00;;
68951;SDS011;56000;51.146;17.112;2022-07-03T12:58:16;1.50;;;1.40;;
68951;SDS011;56000;51.146;17.112;2022-07-03T13:01:26;1.20;;;1.20;;
68951;SDS011;56000;51.146;17.112;2022-07-03T13:04:00;1.80;;;1.50;;
68951;SDS011;56000;51.146;17.112;2022-07-03T13:06:33;3.10;;;2.80;;
68951;SDS011;56000;51.146;17.112;2022-07-03T13:09:07;2.90;;;2.10;;
68951;SDS011;56000;51.146;17.112;2022-07-03T13:11:41;1.60;;;1.50;;
68951;SDS011;56000;51.146;17.112;2022-07-03T13:14:15;4.50;;;1.90;;
68951;SDS011;56000;51.146;17.112;2022-07-03T13:16:49;1.60;;;1.50;;
68951;SDS011;56000;51.146;17.112;2022-07-03T13:19:24;1.70;;;1.60;;
68951;SDS011;56000;51.146;17.112;2022-07-03T13:21:59;1.50;;;1.40;;
68951;SDS011;56000;51.146;17.112;2022-07-03T13:24:32;1.40;;;1.40;;
68951;SDS011;56000;51.146;17.112;2022-07-03T13:27:05;1.50;;;1.30;;
68951;SDS011;56000;51.146;17.112;2022-07-03T13:29:40;1.80;;;1.70;;
68951;SDS011;56000;51.146;17.112;2022-07-03T13:32:13;1.40;;;1.40;;
68951;SDS011;56000;51.146;17.112;2022-07-03T13:34:46;1.60;;;1.50;;
68951;SDS011;56000;51.146;17.112;2022-07-03T13:37:19;1.60;;;1.50;;
68951;SDS011;56000;51.146;17.112;2022-07-03T13:39:52;1.40;;;1.30;;
68951;SDS011;56000;51.146;17.112;2022-07-03T13:42:25;1.60;;;1.50;;
68951;SDS011;56000;51.146;17.112;2022-07-03T13:44:58;1.70;;;1.60;;
68951;SDS011;56000;51.146;17.112;2022-07-03T13:47:31;1.70;;;1.60;;
68951;SDS011;56000;51.146;17.112;2022-07-03T13:50:05;1.80;;;1.70;;
68951;SDS011;56000;51.146;17.112;2022-07-03T13:52:39;3.70;;;1.80;;
68951;SDS011;56000;51.146;17.112;2022-07-03T13:57:48;2.00;;;1.70;;
68951;SDS011;56000;51.146;17.112;2022-07-03T14:00:21;1.60;;;1.50;;
68951;SDS011;56000;51.146;17.112;2022-07-03T14:02:54;4.10;;;1.60;;
68951;SDS011;56000;51.146;17.112;2022-07-03T14:05:28;2.50;;;1.70;;
68951;SDS011;56000;51.146;17.112;2022-07-03T14:08:01;2.40;;;1.90;;
68951;SDS011;56000;51.146;17.112;2022-07-03T14:10:35;3.40;;;1.60;;
68951;SDS011;56000;51.146;17.112;2022-07-03T14:13:08;1.80;;;1.70;;
68951;SDS011;56000;51.146;17.112;2022-07-03T14:15:40;1.70;;;1.60;;
68951;SDS011;56000;51.146;17.112;2022-07-03T14:18:13;1.50;;;1.50;;
68951;SDS011;56000;51.146;17.112;2022-07-03T14:20:46;3.50;;;1.70;;
68951;SDS011;56000;51.146;17.112;2022-07-03T14:23:19;2.20;;;2.00;;
68951;SDS011;56000;51.146;17.112;2022-07-03T14:25:52;2.30;;;1.90;;
68951;SDS011;56000;51.146;17.112;2022-07-03T14:28:25;2.60;;;1.70;;
68951;SDS011;56000;51.146;17.112;2022-07-03T14:31:19;3.00;;;1.70;;
68951;SDS011;56000;51.146;17.112;2022-07-03T14:34:10;2.60;;;1.70;;
68951;SDS011;56000;51.146;17.112;2022-07-03T14:36:45;1.70;;;1.60;;
68951;SDS011;56000;51.146;17.112;2022-07-03T14:39:18;2.10;;;1.80;;
68951;SDS011;56000;51.146;17.112;2022-07-03T14:41:51;2.40;;;1.60;;
68951;SDS011;56000;51.146;17.112;2022-07-03T14:44:26;1.90;;;1.80;;
68951;SDS011;56000;51.146;17.112;2022-07-03T14:47:00;2.30;;;1.90;;
68951;SDS011;56000;51.146;17.112;2022-07-03T14:49:34;1.70;;;1.60;;
68951;SDS011;56000;51.146;17.112;2022-07-03T14:52:07;2.50;;;1.80;;
68951;SDS011;56000;51.146;17.112;2022-07-03T14:54:40;2.30;;;1.80;;
68951;SDS011;56000;51.146;17.112;2022-07-03T14:57:23;2.40;;;1.90;;
68951;SDS011;56000;51.146;17.112;2022-07-03T15:00:06;1.80;;;1.70;;
68951;SDS011;56000;51.146;17.112;2022-07-03T15:02:53;2.40;;;1.70;;
68951;SDS011;56000;51.146;17.112;2022-07-03T15:05:38;1.70;;;1.50;;
68951;SDS011;56000;51.146;17.112;2022-07-03T15:08:19;1.50;;;1.40;;
68951;SDS011;56000;51.146;17.112;2022-07-03T15:11:11;1.90;;;1.80;;
68951;SDS011;56000;51.146;17.112;2022-07-03T15:14:05;2.90;;;1.60;;
68951;SDS011;56000;51.146;17.112;2022-07-03T15:16:40;1.90;;;1.80;;
68951;SDS011;56000;51.146;17.112;2022-07-03T15:19:15;2.50;;;2.30;;
68951;SDS011;56000;51.146;17.112;2022-07-03T15:21:49;2.60;;;1.70;;
68951;SDS011;56000;51.146;17.112;2022-07-03T15:24:26;2.10;;;2.00;;
68951;SDS011;56000;51.146;17.112;2022-07-03T15:27:00;2.20;;;2.10;;
68951;SDS011;56000;51.146;17.112;2022-07-03T15:29:35;3.20;;;1.80;;
68951;SDS011;56000;51.146;17.112;2022-07-03T15:32:09;2.00;;;1.90;;
68951;SDS011;56000;51.146;17.112;2022-07-03T15:34:43;1.90;;;1.80;;
68951;SDS011;56000;51.146;17.112;2022-07-03T15:37:24;1.80;;;1.70;;
68951;SDS011;56000;51.146;17.112;2022-07-03T15:40:09;1.80;;;1.70;;
68951;SDS011;56000;51.146;17.112;2022-07-03T15:43:01;1.90;;;1.70;;